sensor_id;sensor_type;location;lat;lon;timestamp;P1;durP1;ratioP1;P2;durP2;ratioP2
10281;SDS011;5186;59.472;18.048;2023-02-01T00:01:42;10.17;;;5.07;;
10281;SDS011;5186;59.472;18.048;2023-02-01T00:04:08;9.03;;;4.70;;
10281;SDS011;5186;59.472;18.048;2023-02-01T00:06:33;9.33;;;4.40;;
10281;SDS011;5186;59.472;18.048;2023-02-01T00:08:59;8.27;;;4.13;;
10281;SDS011;5186;59.472;18.048;2023-02-01T00:11:25;9.23;;;4.40;;
10281;SDS011;5186;59.472;18.048;2023-02-01T00:13:51;12.20;;;4.63;;
10281;SDS011;5186;59.472;18.048;2023-02-01T00:16:18;10.10;;;4.60;;
10281;SDS011;5186;59.472;18.048;2023-02-01T00:18:46;10.07;;;4.57;;
10281;SDS011;5186;59.472;18.048;2023-02-01T00:21:14;8.60;;;5.07;;
10281;SDS011;5186;59.472;18.048;2023-02-01T00:23:40;10.17;;;4.47;;
10281;SDS011;5186;59.472;18.048;2023-02-01T00:26:07;8.47;;;4.37;;
10281;SDS011;5186;59.472;18.048;2023-02-01T00:28:39;9.10;;;4.53;;
10281;SDS011;5186;59.472;18.048;2023-02-01T00:31:04;9.27;;;4.27;;
10281;SDS011;5186;59.472;18.048;2023-02-01T00:33:30;7.10;;;3.93;;
10281;SDS011;5186;59.472;18.048;2023-02-01T00:36:07;7.80;;;4.13;;
10281;SDS011;5186;59.472;18.048;2023-02-01T00:38:35;8.73;;;4.40;;
10281;SDS011;5186;59.472;18.048;2023-02-01T00:41:03;9.27;;;4.90;;
10281;SDS011;5186;59.472;18.048;2023-02-01T00:43:35;8.70;;;4.40;;
10281;SDS011;5186;59.472;18.048;2023-02-01T00:46:00;7.80;;;4.50;;
10281;SDS011;5186;59.472;18.048;2023-02-01T00:48:26;11.40;;;4.57;;
10281;SDS011;5186;59.472;18.048;2023-02-01T00:50:52;9.77;;;4.60;;
10281;SDS011;5186;59.472;18.048;2023-02-01T00:53:17;11.00;;;4.40;;
10281;SDS011;5186;59.472;18.048;2023-02-01T00:55:46;9.23;;;4.47;;
10281;SDS011;5186;59.472;18.048;2023-02-01T00:58:13;10.93;;;4.13;;
10281;SDS011;5186;59.472;18.048;2023-02-01T01:00:38;8.80;;;4.57;;
10281;SDS011;5186;59.472;18.048;2023-02-01T01:03:04;5.87;;;4.00;;
10281;SDS011;5186;59.472;18.048;2023-02-01T01:05:46;7.83;;;4.20;;
10281;SDS011;5186;59.472;18.048;2023-02-01T01:08:12;9.33;;;4.87;;
10281;SDS011;5186;59.472;18.048;2023-02-01T01:10:39;7.57;;;4.47;;
10281;SDS011;5186;59.472;18.048;2023-02-01T01:13:05;10.33;;;4.77;;
10281;SDS011;5186;59.472;18.048;2023-02-01T01:15:31;8.17;;;4.23;;
10281;SDS011;5186;59.472;18.048;2023-02-01T01:18:00;8.87;;;4.67;;
10281;SDS011;5186;59.472;18.048;2023-02-01T01:20:26;8.33;;;4.40;;
10281;SDS011;5186;59.472;18.048;2023-02-01T01:22:51;8.43;;;4.10;;
10281;SDS011;5186;59.472;18.048;2023-02-01T01:25:17;12.93;;;4.73;;
10281;SDS011;5186;59.472;18.048;2023-02-01T01:27:42;10.57;;;4.50;;
10281;SDS011;5186;59.472;18.048;2023-02-01T01:30:08;10.47;;;4.50;;
10281;SDS011;5186;59.472;18.048;2023-02-01T01:32:34;7.90;;;4.60;;
10281;SDS011;5186;59.472;18.048;2023-02-01T01:35:00;9.57;;;5.10;;
10281;SDS011;5186;59.472;18.048;2023-02-01T01:37:25;9.80;;;4.50;;
10281;SDS011;5186;59.472;18.048;2023-02-01T01:39:51;6.47;;;4.33;;
10281;SDS011;5186;59.472;18.048;2023-02-01T01:42:16;11.43;;;5.23;;
10281;SDS011;5186;59.472;18.048;2023-02-01T01:45:02;6.53;;;4.13;;
10281;SDS011;5186;59.472;18.048;2023-02-01T01:47:40;12.23;;;5.03;;
10281;SDS011;5186;59.472;18.048;2023-02-01T01:50:11;7.30;;;4.30;;
10281;SDS011;5186;59.472;18.048;2023-02-01T01:52:41;7.00;;;3.80;;
10281;SDS011;5186;59.472;18.048;2023-02-01T01:55:09;6.93;;;3.67;;
10281;SDS011;5186;59.472;18.048;2023-02-01T01:57:37;10.07;;;3.90;;
10281;SDS011;5186;59.472;18.048;2023-02-01T02:00:08;7.33;;;3.73;;
10281;SDS011;5186;59.472;18.048;2023-02-01T02:02:36;5.93;;;3.50;;
10281;SDS011;5186;59.472;18.048;2023-02-01T02:05:04;5.80;;;3.07;;
10281;SDS011;5186;59.472;18.048;2023-02-01T02:07:31;8.20;;;3.60;;
10281;SDS011;5186;59.472;18.048;2023-02-01T02:10:00;5.57;;;2.80;;
10281;SDS011;5186;59.472;18.048;2023-02-01T02:12:27;6.63;;;2.70;;
10281;SDS011;5186;59.472;18.048;2023-02-01T02:14:53;7.40;;;3.00;;
10281;SDS011;5186;59.472;18.048;2023-02-01T02:17:25;6.10;;;3.30;;
10281;SDS011;5186;59.472;18.048;2023-02-01T02:30:53;7.87;;;3.60;;
10281;SDS011;5186;59.472;18.048;2023-02-01T02:41:32;7.90;;;3.57;;
10281;SDS011;5186;59.472;18.048;2023-02-01T02:44:45;8.50;;;3.60;;
10281;SDS011;5186;59.472;18.048;2023-02-01T02:47:50;8.13;;;3.97;;
10281;SDS011;5186;59.472;18.048;2023-02-01T02:56:07;5.13;;;3.17;;
10281;SDS011;5186;59.472;18.048;2023-02-01T02:58:53;7.70;;;3.03;;
10281;SDS011;5186;59.472;18.048;2023-02-01T03:01:39;7.10;;;2.77;;
10281;SDS011;5186;59.472;18.048;2023-02-01T03:04:24;5.23;;;2.90;;
10281;SDS011;5186;59.472;18.048;2023-02-01T03:06:51;5.20;;;2.70;;
10281;SDS011;5186;59.472;18.048;2023-02-01T03:09:26;7.87;;;2.80;;
10281;SDS011;5186;59.472;18.048;2023-02-01T03:12:01;8.33;;;2.87;;
10281;SDS011;5186;59.472;18.048;2023-02-01T03:14:50;7.70;;;2.70;;
10281;SDS011;5186;59.472;18.048;2023-02-01T03:17:21;7.77;;;3.27;;
10281;SDS011;5186;59.472;18.048;2023-02-01T03:19:52;5.47;;;2.43;;
10281;SDS011;5186;59.472;18.048;2023-02-01T03:22:23;5.77;;;2.50;;
10281;SDS011;5186;59.472;18.048;2023-02-01T03:24:53;2.97;;;2.40;;
10281;SDS011;5186;59.472;18.048;2023-02-01T03:27:22;8.40;;;2.50;;
10281;SDS011;5186;59.472;18.048;2023-02-01T03:29:56;9.67;;;2.90;;
10281;SDS011;5186;59.472;18.048;2023-02-01T03:32:30;5.73;;;2.50;;
10281;SDS011;5186;59.472;18.048;2023-02-01T03:35:17;6.27;;;2.17;;
10281;SDS011;5186;59.472;18.048;2023-02-01T03:37:45;3.83;;;2.17;;
10281;SDS011;5186;59.472;18.048;2023-02-01T03:40:13;3.83;;;2.17;;
10281;SDS011;5186;59.472;18.048;2023-02-01T03:42:43;7.63;;;2.47;;
10281;SDS011;5186;59.472;18.048;2023-02-01T03:45:14;3.80;;;1.90;;
10281;SDS011;5186;59.472;18.048;2023-02-01T03:47:48;8.23;;;2.70;;
10281;SDS011;5186;59.472;18.048;2023-02-01T03:50:19;7.73;;;2.50;;
10281;SDS011;5186;59.472;18.048;2023-02-01T03:52:50;3.33;;;2.23;;
10281;SDS011;5186;59.472;18.048;2023-02-01T03:55:23;5.23;;;2.70;;
10281;SDS011;5186;59.472;18.048;2023-02-01T03:57:53;5.77;;;2.73;;
10281;SDS011;5186;59.472;18.048;2023-02-01T04:00:32;5.03;;;2.50;;
10281;SDS011;5186;59.472;18.048;2023-02-01T04:02:58;4.97;;;2.53;;
10281;SDS011;5186;59.472;18.048;2023-02-01T04:05:24;7.53;;;2.60;;
10281;SDS011;5186;59.472;18.048;2023-02-01T04:07:49;4.83;;;2.43;;
10281;SDS011;5186;59.472;18.048;2023-02-01T04:10:15;4.70;;;2.40;;
10281;SDS011;5186;59.472;18.048;2023-02-01T04:12:41;3.57;;;2.50;;
10281;SDS011;5186;59.472;18.048;2023-02-01T04:15:07;5.23;;;2.47;;
10281;SDS011;5186;59.472;18.048;2023-02-01T04:17:33;5.90;;;2.37;;
10281;SDS011;5186;59.472;18.048;2023-02-01T04:19:59;5.57;;;2.43;;
10281;SDS011;5186;59.472;18.048;2023-02-01T04:22:25;8.87;;;3.10;;
10281;SDS011;5186;59.472;18.048;2023-02-01T04:24:50;5.77;;;2.90;;
10281;SDS011;5186;59.472;18.048;2023-02-01T04:27:16;8.10;;;2.50;;
10281;SDS011;5186;59.472;18.048;2023-02-01T04:29:41;5.17;;;2.33;;
10281;SDS011;5186;59.472;18.048;2023-02-01T04:32:07;3.97;;;2.43;;
10281;SDS011;5186;59.472;18.048;2023-02-01T04:34:33;4.83;;;2.63;;
10281;SDS011;5186;59.472;18.048;2023-02-01T04:36:58;5.10;;;2.53;;
10281;SDS011;5186;59.472;18.048;2023-02-01T04:39:24;6.03;;;2.60;;
10281;SDS011;5186;59.472;18.048;2023-02-01T04:41:49;7.00;;;2.83;;
10281;SDS011;5186;59.472;18.048;2023-02-01T04:44:16;4.13;;;2.60;;
10281;SDS011;5186;59.472;18.048;2023-02-01T04:46:42;5.07;;;2.87;;
10281;SDS011;5186;59.472;18.048;2023-02-01T04:49:09;5.73;;;2.53;;
10281;SDS011;5186;59.472;18.048;2023-02-01T04:51:35;4.93;;;2.83;;
10281;SDS011;5186;59.472;18.048;2023-02-01T04:54:00;4.93;;;2.87;;
10281;SDS011;5186;59.472;18.048;2023-02-01T04:56:26;6.03;;;3.13;;
10281;SDS011;5186;59.472;18.048;2023-02-01T04:58:52;10.20;;;3.13;;
10281;SDS011;5186;59.472;18.048;2023-02-01T05:01:17;5.03;;;2.37;;
10281;SDS011;5186;59.472;18.048;2023-02-01T05:03:43;5.33;;;2.87;;
10281;SDS011;5186;59.472;18.048;2023-02-01T05:06:09;6.97;;;3.07;;
10281;SDS011;5186;59.472;18.048;2023-02-01T05:08:34;7.37;;;2.70;;
10281;SDS011;5186;59.472;18.048;2023-02-01T05:11:00;8.13;;;2.93;;
10281;SDS011;5186;59.472;18.048;2023-02-01T05:13:27;8.40;;;3.03;;
10281;SDS011;5186;59.472;18.048;2023-02-01T05:16:15;5.77;;;3.13;;
10281;SDS011;5186;59.472;18.048;2023-02-01T05:18:41;10.43;;;3.43;;
10281;SDS011;5186;59.472;18.048;2023-02-01T05:21:06;6.63;;;3.30;;
10281;SDS011;5186;59.472;18.048;2023-02-01T05:23:32;6.73;;;2.70;;
10281;SDS011;5186;59.472;18.048;2023-02-01T05:26:18;7.27;;;3.00;;
10281;SDS011;5186;59.472;18.048;2023-02-01T05:28:43;6.83;;;3.40;;
10281;SDS011;5186;59.472;18.048;2023-02-01T05:31:09;6.77;;;3.27;;
10281;SDS011;5186;59.472;18.048;2023-02-01T05:33:35;7.03;;;3.10;;
10281;SDS011;5186;59.472;18.048;2023-02-01T05:36:01;5.43;;;3.10;;
10281;SDS011;5186;59.472;18.048;2023-02-01T05:38:27;6.87;;;3.03;;
10281;SDS011;5186;59.472;18.048;2023-02-01T05:40:54;6.20;;;3.30;;
10281;SDS011;5186;59.472;18.048;2023-02-01T05:43:20;4.73;;;2.60;;
10281;SDS011;5186;59.472;18.048;2023-02-01T05:45:45;5.83;;;2.97;;
10281;SDS011;5186;59.472;18.048;2023-02-01T05:48:11;4.77;;;2.73;;
10281;SDS011;5186;59.472;18.048;2023-02-01T05:50:37;5.90;;;2.97;;
10281;SDS011;5186;59.472;18.048;2023-02-01T05:53:02;6.00;;;3.40;;
10281;SDS011;5186;59.472;18.048;2023-02-01T05:55:28;10.63;;;3.10;;
10281;SDS011;5186;59.472;18.048;2023-02-01T05:57:53;7.17;;;3.33;;
10281;SDS011;5186;59.472;18.048;2023-02-01T06:00:19;6.93;;;3.97;;
10281;SDS011;5186;59.472;18.048;2023-02-01T06:02:45;6.73;;;2.97;;
10281;SDS011;5186;59.472;18.048;2023-02-01T06:05:11;4.87;;;2.60;;
10281;SDS011;5186;59.472;18.048;2023-02-01T06:07:36;6.57;;;2.90;;
10281;SDS011;5186;59.472;18.048;2023-02-01T06:10:02;4.60;;;2.80;;
10281;SDS011;5186;59.472;18.048;2023-02-01T06:12:28;7.67;;;3.37;;
10281;SDS011;5186;59.472;18.048;2023-02-01T06:14:53;5.83;;;2.87;;
10281;SDS011;5186;59.472;18.048;2023-02-01T06:17:19;7.20;;;3.27;;
10281;SDS011;5186;59.472;18.048;2023-02-01T06:19:44;3.77;;;2.43;;
10281;SDS011;5186;59.472;18.048;2023-02-01T06:22:11;6.83;;;2.80;;
10281;SDS011;5186;59.472;18.048;2023-02-01T06:24:37;5.27;;;2.80;;
10281;SDS011;5186;59.472;18.048;2023-02-01T06:27:03;5.77;;;2.80;;
10281;SDS011;5186;59.472;18.048;2023-02-01T06:29:28;7.47;;;3.33;;
10281;SDS011;5186;59.472;18.048;2023-02-01T06:31:54;4.20;;;2.57;;
10281;SDS011;5186;59.472;18.048;2023-02-01T06:34:19;5.27;;;2.80;;
10281;SDS011;5186;59.472;18.048;2023-02-01T06:36:47;6.57;;;2.80;;
10281;SDS011;5186;59.472;18.048;2023-02-01T06:39:12;6.17;;;2.80;;
10281;SDS011;5186;59.472;18.048;2023-02-01T06:41:40;7.67;;;2.77;;
10281;SDS011;5186;59.472;18.048;2023-02-01T06:44:07;5.80;;;2.77;;
10281;SDS011;5186;59.472;18.048;2023-02-01T06:46:33;4.60;;;2.40;;
10281;SDS011;5186;59.472;18.048;2023-02-01T06:48:59;5.10;;;2.80;;
10281;SDS011;5186;59.472;18.048;2023-02-01T06:51:25;5.50;;;2.70;;
10281;SDS011;5186;59.472;18.048;2023-02-01T06:53:52;8.80;;;3.20;;
10281;SDS011;5186;59.472;18.048;2023-02-01T06:56:17;7.10;;;3.30;;
10281;SDS011;5186;59.472;18.048;2023-02-01T06:58:43;7.70;;;3.13;;
10281;SDS011;5186;59.472;18.048;2023-02-01T07:01:10;6.27;;;2.80;;
10281;SDS011;5186;59.472;18.048;2023-02-01T07:03:36;4.60;;;3.23;;
10281;SDS011;5186;59.472;18.048;2023-02-01T07:06:02;4.57;;;2.97;;
10281;SDS011;5186;59.472;18.048;2023-02-01T07:08:30;9.17;;;3.00;;
10281;SDS011;5186;59.472;18.048;2023-02-01T07:11:01;8.23;;;3.17;;
10281;SDS011;5186;59.472;18.048;2023-02-01T07:13:30;7.00;;;3.30;;
10281;SDS011;5186;59.472;18.048;2023-02-01T07:15:59;9.30;;;3.17;;
10281;SDS011;5186;59.472;18.048;2023-02-01T07:18:26;8.60;;;3.90;;
10281;SDS011;5186;59.472;18.048;2023-02-01T07:20:55;8.90;;;4.03;;
10281;SDS011;5186;59.472;18.048;2023-02-01T07:23:21;9.93;;;4.03;;
10281;SDS011;5186;59.472;18.048;2023-02-01T07:25:47;9.83;;;4.23;;
10281;SDS011;5186;59.472;18.048;2023-02-01T07:28:13;12.43;;;4.00;;
10281;SDS011;5186;59.472;18.048;2023-02-01T07:30:38;11.03;;;5.37;;
10281;SDS011;5186;59.472;18.048;2023-02-01T07:33:04;11.60;;;5.80;;
10281;SDS011;5186;59.472;18.048;2023-02-01T07:35:31;9.90;;;5.37;;
10281;SDS011;5186;59.472;18.048;2023-02-01T07:37:57;11.30;;;5.63;;
10281;SDS011;5186;59.472;18.048;2023-02-01T07:40:23;9.43;;;5.43;;
10281;SDS011;5186;59.472;18.048;2023-02-01T07:42:53;16.63;;;6.87;;
10281;SDS011;5186;59.472;18.048;2023-02-01T07:45:20;11.63;;;5.80;;
10281;SDS011;5186;59.472;18.048;2023-02-01T07:47:45;10.63;;;5.60;;
10281;SDS011;5186;59.472;18.048;2023-02-01T07:50:11;11.27;;;5.40;;
10281;SDS011;5186;59.472;18.048;2023-02-01T07:52:36;9.83;;;4.33;;
10281;SDS011;5186;59.472;18.048;2023-02-01T07:55:02;9.20;;;4.37;;
10281;SDS011;5186;59.472;18.048;2023-02-01T07:57:28;8.37;;;3.93;;
10281;SDS011;5186;59.472;18.048;2023-02-01T07:59:53;6.13;;;3.70;;
10281;SDS011;5186;59.472;18.048;2023-02-01T08:02:37;8.50;;;3.40;;
10281;SDS011;5186;59.472;18.048;2023-02-01T08:05:03;7.23;;;3.43;;
10281;SDS011;5186;59.472;18.048;2023-02-01T08:07:30;6.60;;;2.90;;
10281;SDS011;5186;59.472;18.048;2023-02-01T08:09:56;6.93;;;3.07;;
10281;SDS011;5186;59.472;18.048;2023-02-01T08:12:21;5.10;;;2.80;;
10281;SDS011;5186;59.472;18.048;2023-02-01T08:14:47;6.43;;;2.70;;
10281;SDS011;5186;59.472;18.048;2023-02-01T08:17:12;5.50;;;3.13;;
10281;SDS011;5186;59.472;18.048;2023-02-01T08:19:38;9.00;;;2.63;;
10281;SDS011;5186;59.472;18.048;2023-02-01T08:22:03;7.67;;;3.10;;
10281;SDS011;5186;59.472;18.048;2023-02-01T08:24:32;5.97;;;3.00;;
10281;SDS011;5186;59.472;18.048;2023-02-01T08:26:58;9.43;;;2.87;;
10281;SDS011;5186;59.472;18.048;2023-02-01T08:29:25;6.13;;;2.37;;
10281;SDS011;5186;59.472;18.048;2023-02-01T08:31:50;15.00;;;3.07;;
10281;SDS011;5186;59.472;18.048;2023-02-01T08:34:16;8.47;;;3.83;;
10281;SDS011;5186;59.472;18.048;2023-02-01T08:36:42;10.00;;;3.10;;
10281;SDS011;5186;59.472;18.048;2023-02-01T08:39:08;8.67;;;2.60;;
10281;SDS011;5186;59.472;18.048;2023-02-01T08:41:35;6.13;;;2.77;;
10281;SDS011;5186;59.472;18.048;2023-02-01T08:44:01;5.73;;;2.93;;
10281;SDS011;5186;59.472;18.048;2023-02-01T08:46:26;7.40;;;2.70;;
10281;SDS011;5186;59.472;18.048;2023-02-01T08:48:52;4.50;;;2.67;;
10281;SDS011;5186;59.472;18.048;2023-02-01T08:51:19;9.00;;;2.97;;
10281;SDS011;5186;59.472;18.048;2023-02-01T08:53:47;5.00;;;2.60;;
10281;SDS011;5186;59.472;18.048;2023-02-01T08:56:13;5.70;;;2.70;;
10281;SDS011;5186;59.472;18.048;2023-02-01T08:58:40;5.10;;;2.50;;
10281;SDS011;5186;59.472;18.048;2023-02-01T09:01:07;7.27;;;2.43;;
10281;SDS011;5186;59.472;18.048;2023-02-01T09:03:35;5.53;;;2.37;;
10281;SDS011;5186;59.472;18.048;2023-02-01T09:06:01;5.10;;;2.50;;
10281;SDS011;5186;59.472;18.048;2023-02-01T09:08:28;6.97;;;2.43;;
10281;SDS011;5186;59.472;18.048;2023-02-01T09:10:57;8.80;;;2.60;;
10281;SDS011;5186;59.472;18.048;2023-02-01T09:13:37;4.73;;;2.17;;
10281;SDS011;5186;59.472;18.048;2023-02-01T09:16:03;13.17;;;2.73;;
10281;SDS011;5186;59.472;18.048;2023-02-01T09:18:29;8.37;;;2.87;;
10281;SDS011;5186;59.472;18.048;2023-02-01T09:20:55;6.10;;;2.50;;
10281;SDS011;5186;59.472;18.048;2023-02-01T09:23:20;6.33;;;2.40;;
10281;SDS011;5186;59.472;18.048;2023-02-01T09:25:47;9.37;;;2.47;;
10281;SDS011;5186;59.472;18.048;2023-02-01T09:28:15;6.57;;;2.60;;
10281;SDS011;5186;59.472;18.048;2023-02-01T09:30:41;8.87;;;2.57;;
10281;SDS011;5186;59.472;18.048;2023-02-01T09:33:06;4.73;;;2.70;;
10281;SDS011;5186;59.472;18.048;2023-02-01T09:35:32;11.23;;;2.93;;
10281;SDS011;5186;59.472;18.048;2023-02-01T09:37:57;6.53;;;2.77;;
10281;SDS011;5186;59.472;18.048;2023-02-01T09:40:23;5.93;;;2.70;;
10281;SDS011;5186;59.472;18.048;2023-02-01T09:45:17;4.90;;;2.20;;
10281;SDS011;5186;59.472;18.048;2023-02-01T09:47:51;6.10;;;2.53;;
10281;SDS011;5186;59.472;18.048;2023-02-01T09:50:21;5.73;;;2.40;;
10281;SDS011;5186;59.472;18.048;2023-02-01T09:52:58;9.40;;;3.07;;
10281;SDS011;5186;59.472;18.048;2023-02-01T09:55:30;8.03;;;2.70;;
10281;SDS011;5186;59.472;18.048;2023-02-01T09:58:07;5.87;;;2.40;;
10281;SDS011;5186;59.472;18.048;2023-02-01T10:00:39;12.40;;;2.70;;
10281;SDS011;5186;59.472;18.048;2023-02-01T10:03:12;6.07;;;3.00;;
10281;SDS011;5186;59.472;18.048;2023-02-01T10:06:00;8.70;;;3.40;;
10281;SDS011;5186;59.472;18.048;2023-02-01T10:17:00;9.13;;;2.37;;
10281;SDS011;5186;59.472;18.048;2023-02-01T10:27:38;5.93;;;2.37;;
10281;SDS011;5186;59.472;18.048;2023-02-01T10:32:45;5.17;;;2.00;;
10281;SDS011;5186;59.472;18.048;2023-02-01T10:35:13;5.67;;;2.03;;
10281;SDS011;5186;59.472;18.048;2023-02-01T10:37:46;3.10;;;1.87;;
10281;SDS011;5186;59.472;18.048;2023-02-01T10:40:15;4.57;;;1.97;;
10281;SDS011;5186;59.472;18.048;2023-02-01T10:42:48;7.27;;;2.27;;
10281;SDS011;5186;59.472;18.048;2023-02-01T10:45:17;6.97;;;2.10;;
10281;SDS011;5186;59.472;18.048;2023-02-01T10:47:45;5.23;;;2.30;;
10281;SDS011;5186;59.472;18.048;2023-02-01T10:53:12;6.63;;;2.30;;
10281;SDS011;5186;59.472;18.048;2023-02-01T10:58:16;7.20;;;2.20;;
10281;SDS011;5186;59.472;18.048;2023-02-01T11:06:31;7.20;;;2.27;;
10281;SDS011;5186;59.472;18.048;2023-02-01T11:09:22;4.63;;;1.73;;
10281;SDS011;5186;59.472;18.048;2023-02-01T11:16:53;6.27;;;1.70;;
10281;SDS011;5186;59.472;18.048;2023-02-01T11:19:21;8.73;;;1.93;;
10281;SDS011;5186;59.472;18.048;2023-02-01T11:21:50;4.93;;;2.00;;
10281;SDS011;5186;59.472;18.048;2023-02-01T11:24:28;4.03;;;2.00;;
10281;SDS011;5186;59.472;18.048;2023-02-01T11:26:58;9.03;;;2.40;;
10281;SDS011;5186;59.472;18.048;2023-02-01T11:29:28;7.27;;;2.57;;
10281;SDS011;5186;59.472;18.048;2023-02-01T11:32:02;6.50;;;2.90;;
10281;SDS011;5186;59.472;18.048;2023-02-01T11:34:38;5.70;;;2.70;;
10281;SDS011;5186;59.472;18.048;2023-02-01T11:37:05;7.63;;;2.93;;
10281;SDS011;5186;59.472;18.048;2023-02-01T11:39:59;6.60;;;3.00;;
10281;SDS011;5186;59.472;18.048;2023-02-01T11:42:27;8.73;;;3.40;;
10281;SDS011;5186;59.472;18.048;2023-02-01T11:47:45;10.13;;;2.83;;
10281;SDS011;5186;59.472;18.048;2023-02-01T12:03:45;7.93;;;2.27;;
10281;SDS011;5186;59.472;18.048;2023-02-01T12:06:31;3.13;;;1.80;;
10281;SDS011;5186;59.472;18.048;2023-02-01T12:18:11;5.43;;;2.00;;
10281;SDS011;5186;59.472;18.048;2023-02-01T12:23:38;4.90;;;2.30;;
10281;SDS011;5186;59.472;18.048;2023-02-01T12:26:42;3.17;;;1.50;;
10281;SDS011;5186;59.472;18.048;2023-02-01T12:42:39;4.10;;;1.87;;
10281;SDS011;5186;59.472;18.048;2023-02-01T12:45:12;6.63;;;1.90;;
10281;SDS011;5186;59.472;18.048;2023-02-01T12:50:40;5.43;;;1.70;;
10281;SDS011;5186;59.472;18.048;2023-02-01T12:53:22;4.17;;;1.90;;
10281;SDS011;5186;59.472;18.048;2023-02-01T12:56:09;2.77;;;1.60;;
10281;SDS011;5186;59.472;18.048;2023-02-01T12:58:41;3.27;;;1.47;;
10281;SDS011;5186;59.472;18.048;2023-02-01T13:01:25;2.87;;;1.50;;
10281;SDS011;5186;59.472;18.048;2023-02-01T13:03:59;1.97;;;1.43;;
10281;SDS011;5186;59.472;18.048;2023-02-01T13:06:46;3.57;;;1.30;;
10281;SDS011;5186;59.472;18.048;2023-02-01T13:12:00;3.53;;;1.00;;
10281;SDS011;5186;59.472;18.048;2023-02-01T13:17:22;3.13;;;1.20;;
10281;SDS011;5186;59.472;18.048;2023-02-01T13:19:57;2.80;;;1.30;;
10281;SDS011;5186;59.472;18.048;2023-02-01T13:22:36;5.03;;;1.23;;
10281;SDS011;5186;59.472;18.048;2023-02-01T13:25:13;2.93;;;1.03;;
10281;SDS011;5186;59.472;18.048;2023-02-01T13:27:52;3.77;;;0.93;;
10281;SDS011;5186;59.472;18.048;2023-02-01T13:41:36;5.27;;;0.87;;
10281;SDS011;5186;59.472;18.048;2023-02-01T13:44:11;3.60;;;1.10;;
10281;SDS011;5186;59.472;18.048;2023-02-01T13:46:42;5.93;;;0.93;;
10281;SDS011;5186;59.472;18.048;2023-02-01T13:49:20;3.27;;;1.13;;
10281;SDS011;5186;59.472;18.048;2023-02-01T13:51:49;6.33;;;1.47;;
10281;SDS011;5186;59.472;18.048;2023-02-01T13:54:34;4.80;;;1.03;;
10281;SDS011;5186;59.472;18.048;2023-02-01T13:57:03;5.60;;;1.33;;
10281;SDS011;5186;59.472;18.048;2023-02-01T14:05:02;1.60;;;1.10;;
10281;SDS011;5186;59.472;18.048;2023-02-01T14:07:28;4.63;;;1.20;;
10281;SDS011;5186;59.472;18.048;2023-02-01T14:09:55;3.37;;;1.10;;
10281;SDS011;5186;59.472;18.048;2023-02-01T14:15:25;3.83;;;1.03;;
10281;SDS011;5186;59.472;18.048;2023-02-01T14:17:52;4.03;;;1.20;;
10281;SDS011;5186;59.472;18.048;2023-02-01T14:23:09;2.97;;;1.03;;
10281;SDS011;5186;59.472;18.048;2023-02-01T14:25:38;4.23;;;0.83;;
10281;SDS011;5186;59.472;18.048;2023-02-01T14:28:12;3.53;;;0.90;;
10281;SDS011;5186;59.472;18.048;2023-02-01T14:31:13;4.10;;;1.10;;
10281;SDS011;5186;59.472;18.048;2023-02-01T14:33:41;2.00;;;1.03;;
10281;SDS011;5186;59.472;18.048;2023-02-01T14:36:09;5.90;;;1.13;;
10281;SDS011;5186;59.472;18.048;2023-02-01T14:38:37;1.93;;;0.83;;
10281;SDS011;5186;59.472;18.048;2023-02-01T14:41:47;4.97;;;0.90;;
10281;SDS011;5186;59.472;18.048;2023-02-01T14:49:31;3.43;;;1.20;;
10281;SDS011;5186;59.472;18.048;2023-02-01T14:51:58;3.87;;;1.23;;
10281;SDS011;5186;59.472;18.048;2023-02-01T14:54:27;2.73;;;1.30;;
10281;SDS011;5186;59.472;18.048;2023-02-01T14:56:53;4.43;;;1.30;;
10281;SDS011;5186;59.472;18.048;2023-02-01T14:59:20;2.80;;;1.23;;
10281;SDS011;5186;59.472;18.048;2023-02-01T15:01:50;2.17;;;1.20;;
10281;SDS011;5186;59.472;18.048;2023-02-01T15:04:19;3.07;;;1.03;;
10281;SDS011;5186;59.472;18.048;2023-02-01T15:06:50;4.57;;;1.40;;
10281;SDS011;5186;59.472;18.048;2023-02-01T15:09:33;2.10;;;1.20;;
10281;SDS011;5186;59.472;18.048;2023-02-01T15:14:38;4.13;;;1.50;;
10281;SDS011;5186;59.472;18.048;2023-02-01T15:17:16;3.83;;;1.07;;
10281;SDS011;5186;59.472;18.048;2023-02-01T15:22:23;4.10;;;1.30;;
10281;SDS011;5186;59.472;18.048;2023-02-01T15:24:51;2.93;;;1.13;;
10281;SDS011;5186;59.472;18.048;2023-02-01T15:27:21;1.87;;;1.27;;
10281;SDS011;5186;59.472;18.048;2023-02-01T15:29:47;3.23;;;1.30;;
10281;SDS011;5186;59.472;18.048;2023-02-01T15:38:20;2.07;;;1.63;;
10281;SDS011;5186;59.472;18.048;2023-02-01T15:40:56;3.67;;;1.67;;
10281;SDS011;5186;59.472;18.048;2023-02-01T15:43:38;3.30;;;1.50;;
10281;SDS011;5186;59.472;18.048;2023-02-01T15:46:15;3.17;;;1.60;;
10281;SDS011;5186;59.472;18.048;2023-02-01T15:48:50;4.43;;;1.57;;
10281;SDS011;5186;59.472;18.048;2023-02-01T15:51:21;2.30;;;1.50;;
10281;SDS011;5186;59.472;18.048;2023-02-01T15:53:50;6.40;;;1.50;;
10281;SDS011;5186;59.472;18.048;2023-02-01T15:56:26;3.37;;;1.30;;
10281;SDS011;5186;59.472;18.048;2023-02-01T15:58:55;3.27;;;1.53;;
10281;SDS011;5186;59.472;18.048;2023-02-01T16:01:23;3.80;;;1.27;;
10281;SDS011;5186;59.472;18.048;2023-02-01T16:03:49;4.60;;;1.40;;
10281;SDS011;5186;59.472;18.048;2023-02-01T16:06:27;1.93;;;1.43;;
10281;SDS011;5186;59.472;18.048;2023-02-01T16:08:55;3.40;;;1.50;;
10281;SDS011;5186;59.472;18.048;2023-02-01T16:13:58;3.50;;;1.80;;
10281;SDS011;5186;59.472;18.048;2023-02-01T16:16:25;3.23;;;1.50;;
10281;SDS011;5186;59.472;18.048;2023-02-01T16:18:52;2.67;;;1.40;;
10281;SDS011;5186;59.472;18.048;2023-02-01T16:21:18;5.23;;;1.57;;
10281;SDS011;5186;59.472;18.048;2023-02-01T16:23:47;5.33;;;2.23;;
10281;SDS011;5186;59.472;18.048;2023-02-01T16:26:14;4.00;;;1.63;;
10281;SDS011;5186;59.472;18.048;2023-02-01T16:28:39;5.43;;;2.13;;
10281;SDS011;5186;59.472;18.048;2023-02-01T16:31:05;3.23;;;1.77;;
10281;SDS011;5186;59.472;18.048;2023-02-01T16:33:34;2.23;;;1.87;;
10281;SDS011;5186;59.472;18.048;2023-02-01T16:36:00;4.73;;;2.03;;
10281;SDS011;5186;59.472;18.048;2023-02-01T16:38:27;5.13;;;1.60;;
10281;SDS011;5186;59.472;18.048;2023-02-01T16:40:53;2.93;;;1.57;;
10281;SDS011;5186;59.472;18.048;2023-02-01T16:43:19;4.70;;;1.90;;
10281;SDS011;5186;59.472;18.048;2023-02-01T16:45:47;5.33;;;2.10;;
10281;SDS011;5186;59.472;18.048;2023-02-01T16:48:24;3.83;;;2.00;;
10281;SDS011;5186;59.472;18.048;2023-02-01T16:51:02;4.03;;;2.17;;
10281;SDS011;5186;59.472;18.048;2023-02-01T16:53:32;4.50;;;2.00;;
10281;SDS011;5186;59.472;18.048;2023-02-01T16:55:58;8.87;;;2.60;;
10281;SDS011;5186;59.472;18.048;2023-02-01T16:58:24;4.47;;;2.77;;
10281;SDS011;5186;59.472;18.048;2023-02-01T17:00:51;3.97;;;2.67;;
10281;SDS011;5186;59.472;18.048;2023-02-01T17:03:17;4.70;;;2.60;;
10281;SDS011;5186;59.472;18.048;2023-02-01T17:05:44;4.17;;;2.47;;
10281;SDS011;5186;59.472;18.048;2023-02-01T17:08:13;6.73;;;2.90;;
10281;SDS011;5186;59.472;18.048;2023-02-01T17:10:46;4.07;;;2.00;;
10281;SDS011;5186;59.472;18.048;2023-02-01T17:13:12;3.90;;;2.40;;
10281;SDS011;5186;59.472;18.048;2023-02-01T17:15:39;6.13;;;2.23;;
10281;SDS011;5186;59.472;18.048;2023-02-01T17:18:09;4.53;;;2.10;;
10281;SDS011;5186;59.472;18.048;2023-02-01T17:20:39;2.83;;;2.00;;
10281;SDS011;5186;59.472;18.048;2023-02-01T17:23:06;9.23;;;2.20;;
10281;SDS011;5186;59.472;18.048;2023-02-01T17:25:32;5.33;;;1.80;;
10281;SDS011;5186;59.472;18.048;2023-02-01T17:27:57;5.20;;;2.03;;
10281;SDS011;5186;59.472;18.048;2023-02-01T17:30:23;3.67;;;1.90;;
10281;SDS011;5186;59.472;18.048;2023-02-01T17:32:49;3.37;;;1.73;;
10281;SDS011;5186;59.472;18.048;2023-02-01T17:35:19;3.53;;;1.97;;